sensor_id;sensor_type;location;lat;lon;timestamp;P1;durP1;ratioP1;P2;durP2;ratioP2
33730;SDS011;22931;48.636;9.000;2023-02-20T00:02:25;6.17;;;2.07;;
33730;SDS011;22931;48.636;9.000;2023-02-20T00:07:34;5.32;;;1.90;;
33730;SDS011;22931;48.636;9.000;2023-02-20T00:12:44;2.13;;;1.55;;
33730;SDS011;22931;48.636;9.000;2023-02-20T00:17:52;2.20;;;1.40;;
33730;SDS011;22931;48.636;9.000;2023-02-20T00:22:59;8.25;;;1.85;;
33730;SDS011;22931;48.636;9.000;2023-02-20T00:28:09;3.33;;;1.40;;
33730;SDS011;22931;48.636;9.000;2023-02-20T00:33:17;3.93;;;2.10;;
33730;SDS011;22931;48.636;9.000;2023-02-20T00:38:24;4.97;;;2.15;;
33730;SDS011;22931;48.636;9.000;2023-02-20T00:43:34;1.98;;;1.50;;
33730;SDS011;22931;48.636;9.000;2023-02-20T00:48:42;3.50;;;1.30;;
33730;SDS011;22931;48.636;9.000;2023-02-20T00:53:50;2.88;;;1.38;;
33730;SDS011;22931;48.636;9.000;2023-02-20T00:59:00;3.63;;;1.42;;
33730;SDS011;22931;48.636;9.000;2023-02-20T01:04:07;2.47;;;1.50;;
33730;SDS011;22931;48.636;9.000;2023-02-20T01:09:15;6.72;;;1.67;;
33730;SDS011;22931;48.636;9.000;2023-02-20T01:14:26;4.20;;;1.50;;
33730;SDS011;22931;48.636;9.000;2023-02-20T01:19:33;4.03;;;1.33;;
33730;SDS011;22931;48.636;9.000;2023-02-20T01:24:41;3.88;;;1.35;;
33730;SDS011;22931;48.636;9.000;2023-02-20T01:29:51;2.65;;;1.40;;
33730;SDS011;22931;48.636;9.000;2023-02-20T01:34:59;3.07;;;1.70;;
33730;SDS011;22931;48.636;9.000;2023-02-20T01:40:07;2.25;;;1.10;;
33730;SDS011;22931;48.636;9.000;2023-02-20T01:45:34;2.72;;;1.33;;
33730;SDS011;22931;48.636;9.000;2023-02-20T01:50:42;1.27;;;1.17;;
33730;SDS011;22931;48.636;9.000;2023-02-20T01:55:52;3.85;;;1.70;;
33730;SDS011;22931;48.636;9.000;2023-02-20T02:01:04;2.10;;;1.73;;
33730;SDS011;22931;48.636;9.000;2023-02-20T02:06:12;11.27;;;2.77;;
33730;SDS011;22931;48.636;9.000;2023-02-20T02:11:22;3.28;;;1.42;;
33730;SDS011;22931;48.636;9.000;2023-02-20T02:16:35;3.28;;;1.75;;
33730;SDS011;22931;48.636;9.000;2023-02-20T02:22:00;2.65;;;1.48;;
33730;SDS011;22931;48.636;9.000;2023-02-20T02:27:29;2.35;;;1.15;;
33730;SDS011;22931;48.636;9.000;2023-02-20T02:33:04;2.67;;;1.73;;
33730;SDS011;22931;48.636;9.000;2023-02-20T02:38:23;3.90;;;1.65;;
33730;SDS011;22931;48.636;9.000;2023-02-20T02:43:39;3.17;;;1.55;;
33730;SDS011;22931;48.636;9.000;2023-02-20T02:48:56;2.65;;;1.40;;
33730;SDS011;22931;48.636;9.000;2023-02-20T02:54:10;4.05;;;1.88;;
33730;SDS011;22931;48.636;9.000;2023-02-20T02:59:21;6.10;;;1.73;;
33730;SDS011;22931;48.636;9.000;2023-02-20T03:04:35;2.78;;;1.80;;
33730;SDS011;22931;48.636;9.000;2023-02-20T03:09:49;2.25;;;1.50;;
33730;SDS011;22931;48.636;9.000;2023-02-20T03:15:01;5.43;;;1.40;;
33730;SDS011;22931;48.636;9.000;2023-02-20T03:20:26;3.70;;;1.67;;
33730;SDS011;22931;48.636;9.000;2023-02-20T03:25:37;2.85;;;1.70;;
33730;SDS011;22931;48.636;9.000;2023-02-20T03:30:51;1.73;;;1.48;;
33730;SDS011;22931;48.636;9.000;2023-02-20T03:36:04;3.97;;;1.73;;
33730;SDS011;22931;48.636;9.000;2023-02-20T03:41:29;4.13;;;1.50;;
33730;SDS011;22931;48.636;9.000;2023-02-20T03:46:52;2.50;;;1.38;;
33730;SDS011;22931;48.636;9.000;2023-02-20T03:52:02;4.30;;;1.40;;
33730;SDS011;22931;48.636;9.000;2023-02-20T03:57:14;2.05;;;1.58;;
33730;SDS011;22931;48.636;9.000;2023-02-20T04:02:25;2.50;;;1.52;;
33730;SDS011;22931;48.636;9.000;2023-02-20T04:07:39;1.92;;;1.05;;
33730;SDS011;22931;48.636;9.000;2023-02-20T04:12:53;3.38;;;1.67;;
33730;SDS011;22931;48.636;9.000;2023-02-20T04:18:07;4.32;;;1.88;;
33730;SDS011;22931;48.636;9.000;2023-02-20T04:23:18;2.40;;;1.38;;
33730;SDS011;22931;48.636;9.000;2023-02-20T04:28:30;3.77;;;1.73;;
33730;SDS011;22931;48.636;9.000;2023-02-20T04:33:38;4.53;;;1.45;;
33730;SDS011;22931;48.636;9.000;2023-02-20T04:38:45;3.88;;;2.10;;
33730;SDS011;22931;48.636;9.000;2023-02-20T04:43:55;3.22;;;1.40;;
33730;SDS011;22931;48.636;9.000;2023-02-20T04:49:15;4.15;;;1.88;;
33730;SDS011;22931;48.636;9.000;2023-02-20T04:54:23;4.45;;;1.70;;
33730;SDS011;22931;48.636;9.000;2023-02-20T04:59:33;2.35;;;1.67;;
33730;SDS011;22931;48.636;9.000;2023-02-20T05:04:40;3.73;;;1.80;;
33730;SDS011;22931;48.636;9.000;2023-02-20T05:09:48;6.40;;;2.25;;
33730;SDS011;22931;48.636;9.000;2023-02-20T05:14:58;2.55;;;1.95;;
33730;SDS011;22931;48.636;9.000;2023-02-20T05:20:06;2.57;;;1.57;;
33730;SDS011;22931;48.636;9.000;2023-02-20T05:25:16;3.40;;;2.05;;
33730;SDS011;22931;48.636;9.000;2023-02-20T05:30:26;4.63;;;2.08;;
33730;SDS011;22931;48.636;9.000;2023-02-20T05:35:33;4.43;;;1.80;;
33730;SDS011;22931;48.636;9.000;2023-02-20T05:40:43;3.05;;;1.98;;
33730;SDS011;22931;48.636;9.000;2023-02-20T05:45:53;3.35;;;1.70;;
33730;SDS011;22931;48.636;9.000;2023-02-20T05:51:00;2.80;;;1.60;;
33730;SDS011;22931;48.636;9.000;2023-02-20T05:56:08;3.03;;;1.92;;
33730;SDS011;22931;48.636;9.000;2023-02-20T06:01:22;3.28;;;2.20;;
33730;SDS011;22931;48.636;9.000;2023-02-20T06:06:32;3.55;;;1.90;;
33730;SDS011;22931;48.636;9.000;2023-02-20T06:11:39;4.03;;;2.13;;
33730;SDS011;22931;48.636;9.000;2023-02-20T06:16:50;2.40;;;1.90;;
33730;SDS011;22931;48.636;9.000;2023-02-20T06:21:57;4.23;;;2.30;;
33730;SDS011;22931;48.636;9.000;2023-02-20T06:27:05;3.67;;;2.35;;
33730;SDS011;22931;48.636;9.000;2023-02-20T06:32:15;4.40;;;1.95;;
33730;SDS011;22931;48.636;9.000;2023-02-20T06:37:23;3.17;;;1.35;;
33730;SDS011;22931;48.636;9.000;2023-02-20T06:42:31;2.47;;;1.90;;
33730;SDS011;22931;48.636;9.000;2023-02-20T06:47:41;4.13;;;2.30;;
33730;SDS011;22931;48.636;9.000;2023-02-20T06:52:49;3.97;;;2.17;;
33730;SDS011;22931;48.636;9.000;2023-02-20T06:57:57;4.63;;;1.95;;
33730;SDS011;22931;48.636;9.000;2023-02-20T07:03:07;3.15;;;2.05;;
33730;SDS011;22931;48.636;9.000;2023-02-20T07:08:15;3.47;;;1.90;;
33730;SDS011;22931;48.636;9.000;2023-02-20T07:13:22;2.72;;;1.48;;
33730;SDS011;22931;48.636;9.000;2023-02-20T07:18:32;2.58;;;1.55;;
33730;SDS011;22931;48.636;9.000;2023-02-20T07:23:40;4.33;;;1.77;;
33730;SDS011;22931;48.636;9.000;2023-02-20T07:28:47;5.13;;;2.33;;
33730;SDS011;22931;48.636;9.000;2023-02-20T07:34:00;5.47;;;2.10;;
33730;SDS011;22931;48.636;9.000;2023-02-20T07:39:09;7.53;;;2.43;;
33730;SDS011;22931;48.636;9.000;2023-02-20T07:44:16;7.85;;;2.33;;
33730;SDS011;22931;48.636;9.000;2023-02-20T07:49:27;4.65;;;2.33;;
33730;SDS011;22931;48.636;9.000;2023-02-20T07:54:34;5.33;;;2.30;;
33730;SDS011;22931;48.636;9.000;2023-02-20T07:59:42;4.25;;;2.22;;
33730;SDS011;22931;48.636;9.000;2023-02-20T08:04:52;3.67;;;2.10;;
33730;SDS011;22931;48.636;9.000;2023-02-20T08:09:59;6.93;;;2.47;;
33730;SDS011;22931;48.636;9.000;2023-02-20T08:15:08;5.72;;;2.03;;
33730;SDS011;22931;48.636;9.000;2023-02-20T08:20:19;2.20;;;1.40;;
33730;SDS011;22931;48.636;9.000;2023-02-20T08:25:27;3.58;;;2.47;;
33730;SDS011;22931;48.636;9.000;2023-02-20T08:30:35;6.38;;;2.15;;
33730;SDS011;22931;48.636;9.000;2023-02-20T08:35:47;5.47;;;2.13;;
33730;SDS011;22931;48.636;9.000;2023-02-20T08:40:57;5.20;;;1.95;;
33730;SDS011;22931;48.636;9.000;2023-02-20T08:46:06;3.42;;;1.75;;
33730;SDS011;22931;48.636;9.000;2023-02-20T08:51:19;3.58;;;2.03;;
33730;SDS011;22931;48.636;9.000;2023-02-20T08:56:29;5.75;;;2.10;;
33730;SDS011;22931;48.636;9.000;2023-02-20T09:01:39;4.32;;;2.78;;
33730;SDS011;22931;48.636;9.000;2023-02-20T09:06:49;5.32;;;2.00;;
33730;SDS011;22931;48.636;9.000;2023-02-20T09:11:57;2.38;;;1.48;;
33730;SDS011;22931;48.636;9.000;2023-02-20T09:17:05;3.97;;;1.58;;
33730;SDS011;22931;48.636;9.000;2023-02-20T09:22:20;4.07;;;1.92;;
33730;SDS011;22931;48.636;9.000;2023-02-20T09:27:29;5.28;;;2.47;;
33730;SDS011;22931;48.636;9.000;2023-02-20T09:32:36;3.15;;;1.83;;
33730;SDS011;22931;48.636;9.000;2023-02-20T09:37:46;5.07;;;1.77;;
33730;SDS011;22931;48.636;9.000;2023-02-20T09:43:06;6.53;;;2.30;;
33730;SDS011;22931;48.636;9.000;2023-02-20T09:48:29;2.90;;;1.73;;
33730;SDS011;22931;48.636;9.000;2023-02-20T09:53:48;2.45;;;1.52;;
33730;SDS011;22931;48.636;9.000;2023-02-20T09:59:01;3.00;;;2.08;;
33730;SDS011;22931;48.636;9.000;2023-02-20T10:04:13;3.90;;;1.45;;
33730;SDS011;22931;48.636;9.000;2023-02-20T10:09:27;6.78;;;1.83;;
33730;SDS011;22931;48.636;9.000;2023-02-20T10:14:43;3.77;;;1.43;;
33730;SDS011;22931;48.636;9.000;2023-02-20T10:20:03;4.82;;;1.60;;
33730;SDS011;22931;48.636;9.000;2023-02-20T10:25:22;6.05;;;1.73;;
33730;SDS011;22931;48.636;9.000;2023-02-20T10:30:35;5.97;;;2.08;;
33730;SDS011;22931;48.636;9.000;2023-02-20T10:35:46;1.60;;;1.30;;
33730;SDS011;22931;48.636;9.000;2023-02-20T10:41:04;5.80;;;1.52;;
33730;SDS011;22931;48.636;9.000;2023-02-20T10:46:18;4.47;;;1.88;;
33730;SDS011;22931;48.636;9.000;2023-02-20T10:51:50;7.10;;;1.70;;
33730;SDS011;22931;48.636;9.000;2023-02-20T10:57:05;3.88;;;1.67;;
33730;SDS011;22931;48.636;9.000;2023-02-20T11:02:20;2.63;;;1.38;;
33730;SDS011;22931;48.636;9.000;2023-02-20T11:07:31;4.63;;;1.50;;
33730;SDS011;22931;48.636;9.000;2023-02-20T11:12:43;2.15;;;1.52;;
33730;SDS011;22931;48.636;9.000;2023-02-20T11:17:53;2.55;;;1.08;;
33730;SDS011;22931;48.636;9.000;2023-02-20T11:23:03;4.27;;;1.13;;
33730;SDS011;22931;48.636;9.000;2023-02-20T11:28:16;2.00;;;1.05;;
33730;SDS011;22931;48.636;9.000;2023-02-20T11:33:26;2.38;;;1.08;;
33730;SDS011;22931;48.636;9.000;2023-02-20T11:38:37;3.75;;;1.15;;
33730;SDS011;22931;48.636;9.000;2023-02-20T11:43:48;1.73;;;0.90;;
33730;SDS011;22931;48.636;9.000;2023-02-20T11:49:22;0.73;;;0.70;;
33730;SDS011;22931;48.636;9.000;2023-02-20T11:54:32;2.20;;;0.80;;
33730;SDS011;22931;48.636;9.000;2023-02-20T11:59:43;0.60;;;0.60;;
33730;SDS011;22931;48.636;9.000;2023-02-20T12:05:05;2.15;;;0.82;;
33730;SDS011;22931;48.636;9.000;2023-02-20T12:15:47;1.65;;;0.70;;
33730;SDS011;22931;48.636;9.000;2023-02-20T12:21:08;1.37;;;0.70;;
33730;SDS011;22931;48.636;9.000;2023-02-20T12:26:29;1.20;;;1.10;;
33730;SDS011;22931;48.636;9.000;2023-02-20T12:31:54;0.50;;;0.50;;
33730;SDS011;22931;48.636;9.000;2023-02-20T12:37:11;1.25;;;0.77;;
33730;SDS011;22931;48.636;9.000;2023-02-20T12:42:31;1.75;;;0.70;;
33730;SDS011;22931;48.636;9.000;2023-02-20T12:47:54;1.08;;;0.73;;
33730;SDS011;22931;48.636;9.000;2023-02-20T12:53:17;0.70;;;0.60;;
33730;SDS011;22931;48.636;9.000;2023-02-20T12:58:37;0.50;;;0.50;;
33730;SDS011;22931;48.636;9.000;2023-02-20T13:03:59;1.45;;;0.68;;
33730;SDS011;22931;48.636;9.000;2023-02-20T13:09:15;0.57;;;0.57;;
33730;SDS011;22931;48.636;9.000;2023-02-20T13:14:29;0.75;;;0.60;;
33730;SDS011;22931;48.636;9.000;2023-02-20T13:19:52;2.87;;;0.67;;
33730;SDS011;22931;48.636;9.000;2023-02-20T13:30:46;0.98;;;0.73;;
33730;SDS011;22931;48.636;9.000;2023-02-20T13:41:56;0.70;;;0.60;;
33730;SDS011;22931;48.636;9.000;2023-02-20T13:52:40;1.80;;;0.95;;
33730;SDS011;22931;48.636;9.000;2023-02-20T14:02:58;1.40;;;0.50;;
33730;SDS011;22931;48.636;9.000;2023-02-20T14:08:10;4.57;;;0.60;;
33730;SDS011;22931;48.636;9.000;2023-02-20T14:13:23;0.70;;;0.60;;
33730;SDS011;22931;48.636;9.000;2023-02-20T14:18:43;1.65;;;0.70;;
33730;SDS011;22931;48.636;9.000;2023-02-20T14:23:53;0.80;;;0.70;;
33730;SDS011;22931;48.636;9.000;2023-02-20T14:29:01;0.80;;;0.47;;
33730;SDS011;22931;48.636;9.000;2023-02-20T14:34:09;1.38;;;0.70;;
33730;SDS011;22931;48.636;9.000;2023-02-20T14:39:35;3.17;;;0.50;;
33730;SDS011;22931;48.636;9.000;2023-02-20T14:44:57;0.85;;;0.85;;
33730;SDS011;22931;48.636;9.000;2023-02-20T14:50:07;0.50;;;0.50;;
33730;SDS011;22931;48.636;9.000;2023-02-20T14:55:25;0.77;;;0.47;;
33730;SDS011;22931;48.636;9.000;2023-02-20T15:00:33;0.40;;;0.40;;
33730;SDS011;22931;48.636;9.000;2023-02-20T15:05:42;0.35;;;0.30;;
33730;SDS011;22931;48.636;9.000;2023-02-20T15:10:53;0.65;;;0.40;;
33730;SDS011;22931;48.636;9.000;2023-02-20T15:16:03;3.00;;;0.40;;
33730;SDS011;22931;48.636;9.000;2023-02-20T15:21:13;0.30;;;0.30;;
33730;SDS011;22931;48.636;9.000;2023-02-20T15:26:38;0.40;;;0.40;;
33730;SDS011;22931;48.636;9.000;2023-02-20T15:31:52;0.47;;;0.43;;
33730;SDS011;22931;48.636;9.000;2023-02-20T15:37:01;0.30;;;0.30;;
33730;SDS011;22931;48.636;9.000;2023-02-20T15:42:36;0.85;;;0.40;;
33730;SDS011;22931;48.636;9.000;2023-02-20T15:47:43;1.80;;;0.43;;
33730;SDS011;22931;48.636;9.000;2023-02-20T15:52:51;0.77;;;0.47;;
33730;SDS011;22931;48.636;9.000;2023-02-20T15:58:05;1.50;;;0.50;;
33730;SDS011;22931;48.636;9.000;2023-02-20T16:03:30;1.30;;;0.60;;
33730;SDS011;22931;48.636;9.000;2023-02-20T16:08:54;1.98;;;0.75;;
33730;SDS011;22931;48.636;9.000;2023-02-20T16:14:05;2.47;;;0.93;;
33730;SDS011;22931;48.636;9.000;2023-02-20T16:24:33;1.33;;;1.20;;
33730;SDS011;22931;48.636;9.000;2023-02-20T16:29:45;1.42;;;0.88;;
33730;SDS011;22931;48.636;9.000;2023-02-20T16:34:53;0.65;;;0.65;;
33730;SDS011;22931;48.636;9.000;2023-02-20T16:40:02;1.33;;;0.80;;
33730;SDS011;22931;48.636;9.000;2023-02-20T16:45:13;5.78;;;1.10;;
33730;SDS011;22931;48.636;9.000;2023-02-20T16:50:23;0.88;;;0.73;;
33730;SDS011;22931;48.636;9.000;2023-02-20T16:55:34;0.98;;;0.75;;
33730;SDS011;22931;48.636;9.000;2023-02-20T17:00:45;1.50;;;1.10;;
33730;SDS011;22931;48.636;9.000;2023-02-20T17:06:00;0.60;;;0.60;;
33730;SDS011;22931;48.636;9.000;2023-02-20T17:11:08;1.05;;;0.82;;
33730;SDS011;22931;48.636;9.000;2023-02-20T17:16:19;0.65;;;0.65;;
33730;SDS011;22931;48.636;9.000;2023-02-20T17:21:35;0.70;;;0.68;;
33730;SDS011;22931;48.636;9.000;2023-02-20T17:26:42;0.60;;;0.60;;
33730;SDS011;22931;48.636;9.000;2023-02-20T17:31:53;0.93;;;0.68;;
33730;SDS011;22931;48.636;9.000;2023-02-20T17:37:01;1.90;;;0.80;;
33730;SDS011;22931;48.636;9.000;2023-02-20T17:42:09;0.70;;;0.70;;
33730;SDS011;22931;48.636;9.000;2023-02-20T17:47:20;2.30;;;1.13;;
33730;SDS011;22931;48.636;9.000;2023-02-20T17:52:28;3.30;;;1.00;;
33730;SDS011;22931;48.636;9.000;2023-02-20T17:57:37;3.72;;;1.50;;
33730;SDS011;22931;48.636;9.000;2023-02-20T18:02:47;2.22;;;1.60;;
33730;SDS011;22931;48.636;9.000;2023-02-20T18:07:55;2.70;;;2.08;;
33730;SDS011;22931;48.636;9.000;2023-02-20T18:13:02;2.55;;;1.77;;
33730;SDS011;22931;48.636;9.000;2023-02-20T18:18:13;4.03;;;1.65;;
33730;SDS011;22931;48.636;9.000;2023-02-20T18:23:21;4.20;;;1.80;;
33730;SDS011;22931;48.636;9.000;2023-02-20T18:28:29;2.70;;;1.50;;
33730;SDS011;22931;48.636;9.000;2023-02-20T18:33:39;1.20;;;1.02;;
33730;SDS011;22931;48.636;9.000;2023-02-20T18:38:47;2.00;;;1.17;;
33730;SDS011;22931;48.636;9.000;2023-02-20T18:43:54;1.83;;;1.38;;
33730;SDS011;22931;48.636;9.000;2023-02-20T18:49:05;1.63;;;1.15;;
33730;SDS011;22931;48.636;9.000;2023-02-20T18:54:14;2.88;;;1.70;;
33730;SDS011;22931;48.636;9.000;2023-02-20T18:59:23;3.08;;;1.35;;
33730;SDS011;22931;48.636;9.000;2023-02-20T19:04:35;1.58;;;1.30;;
33730;SDS011;22931;48.636;9.000;2023-02-20T19:09:42;4.75;;;2.53;;
33730;SDS011;22931;48.636;9.000;2023-02-20T19:14:50;2.95;;;2.00;;
33730;SDS011;22931;48.636;9.000;2023-02-20T19:20:00;1.98;;;1.13;;
33730;SDS011;22931;48.636;9.000;2023-02-20T19:25:07;1.47;;;1.37;;
33730;SDS011;22931;48.636;9.000;2023-02-20T19:30:15;1.45;;;1.05;;
33730;SDS011;22931;48.636;9.000;2023-02-20T19:35:26;1.55;;;0.90;;
33730;SDS011;22931;48.636;9.000;2023-02-20T19:40:34;3.22;;;1.52;;
33730;SDS011;22931;48.636;9.000;2023-02-20T19:45:42;4.13;;;2.50;;
33730;SDS011;22931;48.636;9.000;2023-02-20T19:50:54;5.65;;;3.00;;
33730;SDS011;22931;48.636;9.000;2023-02-20T19:56:02;6.20;;;2.70;;
33730;SDS011;22931;48.636;9.000;2023-02-20T20:01:10;3.90;;;2.00;;
33730;SDS011;22931;48.636;9.000;2023-02-20T20:06:24;3.83;;;2.22;;
33730;SDS011;22931;48.636;9.000;2023-02-20T20:11:33;4.05;;;2.22;;
33730;SDS011;22931;48.636;9.000;2023-02-20T20:16:40;5.90;;;3.17;;
33730;SDS011;22931;48.636;9.000;2023-02-20T20:21:51;7.22;;;2.85;;
33730;SDS011;22931;48.636;9.000;2023-02-20T20:26:58;3.30;;;2.30;;
33730;SDS011;22931;48.636;9.000;2023-02-20T20:32:06;3.63;;;1.63;;
33730;SDS011;22931;48.636;9.000;2023-02-20T20:37:16;3.15;;;2.03;;
33730;SDS011;22931;48.636;9.000;2023-02-20T20:42:27;4.85;;;2.72;;
33730;SDS011;22931;48.636;9.000;2023-02-20T20:47:35;5.35;;;1.40;;
33730;SDS011;22931;48.636;9.000;2023-02-20T20:52:46;2.42;;;1.83;;
33730;SDS011;22931;48.636;9.000;2023-02-20T20:57:54;3.08;;;2.13;;
33730;SDS011;22931;48.636;9.000;2023-02-20T21:03:03;3.42;;;1.90;;
33730;SDS011;22931;48.636;9.000;2023-02-20T21:08:16;4.03;;;2.08;;
33730;SDS011;22931;48.636;9.000;2023-02-20T21:13:24;4.87;;;2.63;;
33730;SDS011;22931;48.636;9.000;2023-02-20T21:18:31;10.63;;;5.40;;
33730;SDS011;22931;48.636;9.000;2023-02-20T21:23:43;12.98;;;4.70;;
33730;SDS011;22931;48.636;9.000;2023-02-20T21:28:51;11.30;;;4.70;;
33730;SDS011;22931;48.636;9.000;2023-02-20T21:33:59;9.15;;;3.92;;
33730;SDS011;22931;48.636;9.000;2023-02-20T21:39:09;12.80;;;5.40;;
33730;SDS011;22931;48.636;9.000;2023-02-20T21:44:17;6.47;;;3.60;;
33730;SDS011;22931;48.636;9.000;2023-02-20T21:49:33;4.30;;;2.45;;
33730;SDS011;22931;48.636;9.000;2023-02-20T21:54:48;3.60;;;2.38;;
33730;SDS011;22931;48.636;9.000;2023-02-20T21:59:56;3.97;;;2.38;;
33730;SDS011;22931;48.636;9.000;2023-02-20T22:05:01;2.75;;;2.08;;
33730;SDS011;22931;48.636;9.000;2023-02-20T22:10:09;4.47;;;2.03;;
33730;SDS011;22931;48.636;9.000;2023-02-20T22:15:29;2.47;;;1.83;;
33730;SDS011;22931;48.636;9.000;2023-02-20T22:20:49;2.67;;;1.92;;
33730;SDS011;22931;48.636;9.000;2023-02-20T22:26:15;2.70;;;1.70;;
33730;SDS011;22931;48.636;9.000;2023-02-20T22:31:36;3.42;;;1.55;;
33730;SDS011;22931;48.636;9.000;2023-02-20T22:36:56;2.38;;;1.60;;
33730;SDS011;22931;48.636;9.000;2023-02-20T22:42:19;3.85;;;2.10;;
33730;SDS011;22931;48.636;9.000;2023-02-20T22:47:39;1.75;;;1.25;;
33730;SDS011;22931;48.636;9.000;2023-02-20T22:53:00;2.55;;;1.65;;
33730;SDS011;22931;48.636;9.000;2023-02-20T22:58:23;5.03;;;1.47;;
33730;SDS011;22931;48.636;9.000;2023-02-20T23:03:44;5.30;;;1.73;;
33730;SDS011;22931;48.636;9.000;2023-02-20T23:09:04;3.83;;;2.20;;
33730;SDS011;22931;48.636;9.000;2023-02-20T23:14:27;2.80;;;1.92;;
33730;SDS011;22931;48.636;9.000;2023-02-20T23:19:47;2.58;;;1.50;;
33730;SDS011;22931;48.636;9.000;2023-02-20T23:25:07;4.85;;;1.60;;
33730;SDS011;22931;48.636;9.000;2023-02-20T23:30:30;3.30;;;1.50;;
33730;SDS011;22931;48.636;9.000;2023-02-20T23:35:50;2.50;;;1.30;;
33730;SDS011;22931;48.636;9.000;2023-02-20T23:41:10;1.63;;;1.17;;
33730;SDS011;22931;48.636;9.000;2023-02-20T23:46:32;4.00;;;1.77;;
33730;SDS011;22931;48.636;9.000;2023-02-20T23:51:52;2.78;;;1.55;;
33730;SDS011;22931;48.636;9.000;2023-02-20T23:57:20;2.13;;;1.20;;
